sensor_id;sensor_type;location;lat;lon;timestamp;P1;durP1;ratioP1;P2;durP2;ratioP2
9409;SDS011;4744;52.576;13.568;2024-03-08T00:01:20;21.45;;;10.15;;
9409;SDS011;4744;52.576;13.568;2024-03-08T00:03:48;23.58;;;11.15;;
9409;SDS011;4744;52.576;13.568;2024-03-08T00:06:16;21.40;;;9.95;;
9409;SDS011;4744;52.576;13.568;2024-03-08T00:08:44;23.95;;;10.63;;
9409;SDS011;4744;52.576;13.568;2024-03-08T00:11:11;20.13;;;9.80;;
9409;SDS011;4744;52.576;13.568;2024-03-08T00:13:39;23.27;;;9.32;;
9409;SDS011;4744;52.576;13.568;2024-03-08T00:16:07;19.02;;;9.43;;
9409;SDS011;4744;52.576;13.568;2024-03-08T00:18:34;19.40;;;8.85;;
9409;SDS011;4744;52.576;13.568;2024-03-08T00:21:01;21.58;;;10.45;;
9409;SDS011;4744;52.576;13.568;2024-03-08T00:23:29;23.10;;;10.15;;
9409;SDS011;4744;52.576;13.568;2024-03-08T00:25:59;27.58;;;9.07;;
9409;SDS011;4744;52.576;13.568;2024-03-08T00:28:28;24.23;;;9.93;;
9409;SDS011;4744;52.576;13.568;2024-03-08T00:30:55;25.48;;;10.93;;
9409;SDS011;4744;52.576;13.568;2024-03-08T00:33:22;23.63;;;9.98;;
9409;SDS011;4744;52.576;13.568;2024-03-08T00:35:52;22.50;;;10.88;;
9409;SDS011;4744;52.576;13.568;2024-03-08T00:38:19;24.63;;;10.50;;
9409;SDS011;4744;52.576;13.568;2024-03-08T00:40:46;21.25;;;10.40;;
9409;SDS011;4744;52.576;13.568;2024-03-08T00:43:15;25.08;;;10.13;;
9409;SDS011;4744;52.576;13.568;2024-03-08T00:45:42;20.83;;;10.23;;
9409;SDS011;4744;52.576;13.568;2024-03-08T00:48:09;18.48;;;8.65;;
9409;SDS011;4744;52.576;13.568;2024-03-08T00:50:36;23.67;;;9.75;;
9409;SDS011;4744;52.576;13.568;2024-03-08T00:53:03;23.10;;;10.35;;
9409;SDS011;4744;52.576;13.568;2024-03-08T00:55:31;21.13;;;9.70;;
9409;SDS011;4744;52.576;13.568;2024-03-08T00:57:58;23.80;;;10.18;;
9409;SDS011;4744;52.576;13.568;2024-03-08T01:00:26;21.65;;;10.20;;
9409;SDS011;4744;52.576;13.568;2024-03-08T01:02:53;18.52;;;9.23;;
9409;SDS011;4744;52.576;13.568;2024-03-08T01:05:20;20.77;;;9.38;;
9409;SDS011;4744;52.576;13.568;2024-03-08T01:07:48;22.55;;;10.27;;
9409;SDS011;4744;52.576;13.568;2024-03-08T01:10:16;24.10;;;10.00;;
9409;SDS011;4744;52.576;13.568;2024-03-08T01:12:43;20.20;;;9.23;;
9409;SDS011;4744;52.576;13.568;2024-03-08T01:15:10;23.23;;;11.00;;
9409;SDS011;4744;52.576;13.568;2024-03-08T01:17:38;22.90;;;10.20;;
9409;SDS011;4744;52.576;13.568;2024-03-08T01:20:06;21.67;;;9.55;;
9409;SDS011;4744;52.576;13.568;2024-03-08T01:22:36;23.42;;;9.25;;
9409;SDS011;4744;52.576;13.568;2024-03-08T01:25:03;19.98;;;9.77;;
9409;SDS011;4744;52.576;13.568;2024-03-08T01:27:31;21.38;;;9.55;;
9409;SDS011;4744;52.576;13.568;2024-03-08T01:29:58;26.23;;;11.00;;
9409;SDS011;4744;52.576;13.568;2024-03-08T01:32:25;21.00;;;9.43;;
9409;SDS011;4744;52.576;13.568;2024-03-08T01:34:54;24.55;;;11.50;;
9409;SDS011;4744;52.576;13.568;2024-03-08T01:37:21;20.98;;;9.00;;
9409;SDS011;4744;52.576;13.568;2024-03-08T01:39:48;25.50;;;9.75;;
9409;SDS011;4744;52.576;13.568;2024-03-08T01:42:15;21.63;;;9.48;;
9409;SDS011;4744;52.576;13.568;2024-03-08T01:44:42;23.05;;;11.10;;
9409;SDS011;4744;52.576;13.568;2024-03-08T01:47:10;21.33;;;10.40;;
9409;SDS011;4744;52.576;13.568;2024-03-08T01:49:37;25.27;;;10.85;;
9409;SDS011;4744;52.576;13.568;2024-03-08T01:52:06;21.88;;;10.90;;
9409;SDS011;4744;52.576;13.568;2024-03-08T01:54:33;22.15;;;9.40;;
9409;SDS011;4744;52.576;13.568;2024-03-08T01:57:02;21.70;;;10.20;;
9409;SDS011;4744;52.576;13.568;2024-03-08T01:59:29;28.48;;;11.02;;
9409;SDS011;4744;52.576;13.568;2024-03-08T02:01:56;28.98;;;11.20;;
9409;SDS011;4744;52.576;13.568;2024-03-08T02:04:28;27.55;;;11.30;;
9409;SDS011;4744;52.576;13.568;2024-03-08T02:06:56;25.30;;;11.07;;
9409;SDS011;4744;52.576;13.568;2024-03-08T02:09:25;25.73;;;12.00;;
9409;SDS011;4744;52.576;13.568;2024-03-08T02:11:52;27.15;;;10.80;;
9409;SDS011;4744;52.576;13.568;2024-03-08T02:14:19;23.08;;;10.93;;
9409;SDS011;4744;52.576;13.568;2024-03-08T02:16:46;27.98;;;12.13;;
9409;SDS011;4744;52.576;13.568;2024-03-08T02:19:13;26.95;;;11.45;;
9409;SDS011;4744;52.576;13.568;2024-03-08T02:21:42;27.15;;;12.70;;
9409;SDS011;4744;52.576;13.568;2024-03-08T02:24:12;20.65;;;10.88;;
9409;SDS011;4744;52.576;13.568;2024-03-08T02:26:39;30.92;;;12.00;;
9409;SDS011;4744;52.576;13.568;2024-03-08T02:29:08;30.15;;;12.85;;
9409;SDS011;4744;52.576;13.568;2024-03-08T02:31:35;26.65;;;12.68;;
9409;SDS011;4744;52.576;13.568;2024-03-08T02:34:04;29.60;;;11.93;;
9409;SDS011;4744;52.576;13.568;2024-03-08T02:36:31;26.58;;;11.25;;
9409;SDS011;4744;52.576;13.568;2024-03-08T02:39:02;27.50;;;12.43;;
9409;SDS011;4744;52.576;13.568;2024-03-08T02:41:30;26.63;;;11.23;;
9409;SDS011;4744;52.576;13.568;2024-03-08T02:43:57;28.70;;;11.75;;
9409;SDS011;4744;52.576;13.568;2024-03-08T02:46:25;26.88;;;11.98;;
9409;SDS011;4744;52.576;13.568;2024-03-08T02:48:52;25.92;;;11.50;;
9409;SDS011;4744;52.576;13.568;2024-03-08T02:51:18;30.08;;;12.35;;
9409;SDS011;4744;52.576;13.568;2024-03-08T02:53:46;27.73;;;11.55;;
9409;SDS011;4744;52.576;13.568;2024-03-08T02:56:15;28.13;;;12.38;;
9409;SDS011;4744;52.576;13.568;2024-03-08T02:58:42;26.77;;;11.40;;
9409;SDS011;4744;52.576;13.568;2024-03-08T03:01:13;29.95;;;12.13;;
9409;SDS011;4744;52.576;13.568;2024-03-08T03:03:40;30.52;;;11.98;;
9409;SDS011;4744;52.576;13.568;2024-03-08T03:06:07;29.45;;;12.27;;
9409;SDS011;4744;52.576;13.568;2024-03-08T03:08:35;34.13;;;13.00;;
9409;SDS011;4744;52.576;13.568;2024-03-08T03:11:01;33.42;;;12.85;;
9409;SDS011;4744;52.576;13.568;2024-03-08T03:13:30;30.75;;;12.88;;
9409;SDS011;4744;52.576;13.568;2024-03-08T03:15:57;31.13;;;12.68;;
9409;SDS011;4744;52.576;13.568;2024-03-08T03:18:23;28.60;;;12.55;;
9409;SDS011;4744;52.576;13.568;2024-03-08T03:20:52;27.80;;;12.70;;
9409;SDS011;4744;52.576;13.568;2024-03-08T03:23:19;29.48;;;12.52;;
9409;SDS011;4744;52.576;13.568;2024-03-08T03:25:46;27.83;;;12.57;;
9409;SDS011;4744;52.576;13.568;2024-03-08T03:28:13;25.60;;;11.43;;
9409;SDS011;4744;52.576;13.568;2024-03-08T03:30:44;29.30;;;12.73;;
9409;SDS011;4744;52.576;13.568;2024-03-08T03:33:11;28.30;;;12.90;;
9409;SDS011;4744;52.576;13.568;2024-03-08T03:35:40;30.40;;;12.15;;
9409;SDS011;4744;52.576;13.568;2024-03-08T03:38:08;30.15;;;12.32;;
9409;SDS011;4744;52.576;13.568;2024-03-08T03:40:35;33.65;;;12.45;;
9409;SDS011;4744;52.576;13.568;2024-03-08T03:43:03;29.58;;;12.90;;
9409;SDS011;4744;52.576;13.568;2024-03-08T03:45:30;23.27;;;11.90;;
9409;SDS011;4744;52.576;13.568;2024-03-08T03:48:01;26.42;;;12.13;;
9409;SDS011;4744;52.576;13.568;2024-03-08T03:50:29;28.27;;;11.98;;
9409;SDS011;4744;52.576;13.568;2024-03-08T03:52:59;32.50;;;13.18;;
9409;SDS011;4744;52.576;13.568;2024-03-08T03:55:27;28.42;;;11.60;;
9409;SDS011;4744;52.576;13.568;2024-03-08T03:57:53;30.40;;;12.35;;
9409;SDS011;4744;52.576;13.568;2024-03-08T04:00:20;29.40;;;12.13;;
9409;SDS011;4744;52.576;13.568;2024-03-08T04:02:47;30.80;;;12.50;;
9409;SDS011;4744;52.576;13.568;2024-03-08T04:05:17;31.77;;;12.73;;
9409;SDS011;4744;52.576;13.568;2024-03-08T04:07:44;31.05;;;13.05;;
9409;SDS011;4744;52.576;13.568;2024-03-08T04:10:11;31.23;;;13.00;;
9409;SDS011;4744;52.576;13.568;2024-03-08T04:12:38;28.15;;;13.35;;
9409;SDS011;4744;52.576;13.568;2024-03-08T04:15:05;29.05;;;12.25;;
9409;SDS011;4744;52.576;13.568;2024-03-08T04:17:33;29.50;;;11.95;;
9409;SDS011;4744;52.576;13.568;2024-03-08T04:20:02;28.15;;;11.68;;
9409;SDS011;4744;52.576;13.568;2024-03-08T04:22:35;26.98;;;13.13;;
9409;SDS011;4744;52.576;13.568;2024-03-08T04:25:03;34.13;;;13.35;;
9409;SDS011;4744;52.576;13.568;2024-03-08T04:27:31;30.23;;;13.57;;
9409;SDS011;4744;52.576;13.568;2024-03-08T04:29:59;29.60;;;13.32;;
9409;SDS011;4744;52.576;13.568;2024-03-08T04:32:26;33.03;;;12.68;;
9409;SDS011;4744;52.576;13.568;2024-03-08T04:34:54;31.55;;;13.57;;
9409;SDS011;4744;52.576;13.568;2024-03-08T04:37:21;32.88;;;12.32;;
9409;SDS011;4744;52.576;13.568;2024-03-08T04:39:50;28.73;;;12.40;;
9409;SDS011;4744;52.576;13.568;2024-03-08T04:42:17;27.40;;;12.20;;
9409;SDS011;4744;52.576;13.568;2024-03-08T04:44:44;32.13;;;14.50;;
9409;SDS011;4744;52.576;13.568;2024-03-08T04:47:11;28.30;;;12.63;;
9409;SDS011;4744;52.576;13.568;2024-03-08T04:49:38;29.42;;;12.52;;
9409;SDS011;4744;52.576;13.568;2024-03-08T04:52:05;31.88;;;13.32;;
9409;SDS011;4744;52.576;13.568;2024-03-08T04:54:32;35.58;;;13.73;;
9409;SDS011;4744;52.576;13.568;2024-03-08T04:57:01;33.42;;;13.43;;
9409;SDS011;4744;52.576;13.568;2024-03-08T04:59:29;31.40;;;13.40;;
9409;SDS011;4744;52.576;13.568;2024-03-08T05:01:57;36.65;;;14.38;;
9409;SDS011;4744;52.576;13.568;2024-03-08T05:04:24;33.10;;;14.05;;
9409;SDS011;4744;52.576;13.568;2024-03-08T05:06:50;30.50;;;13.70;;
9409;SDS011;4744;52.576;13.568;2024-03-08T05:09:18;38.53;;;14.20;;
9409;SDS011;4744;52.576;13.568;2024-03-08T05:11:45;30.85;;;13.80;;
9409;SDS011;4744;52.576;13.568;2024-03-08T05:14:14;29.77;;;12.63;;
9409;SDS011;4744;52.576;13.568;2024-03-08T05:16:44;32.58;;;13.82;;
9409;SDS011;4744;52.576;13.568;2024-03-08T05:19:13;34.53;;;14.65;;
9409;SDS011;4744;52.576;13.568;2024-03-08T05:21:41;28.42;;;12.43;;
9409;SDS011;4744;52.576;13.568;2024-03-08T05:24:09;38.00;;;13.55;;
9409;SDS011;4744;52.576;13.568;2024-03-08T05:26:36;32.63;;;14.13;;
9409;SDS011;4744;52.576;13.568;2024-03-08T05:29:03;30.60;;;13.20;;
9409;SDS011;4744;52.576;13.568;2024-03-08T05:31:32;33.35;;;14.88;;
9409;SDS011;4744;52.576;13.568;2024-03-08T05:34:09;32.00;;;13.55;;
9409;SDS011;4744;52.576;13.568;2024-03-08T05:36:39;35.55;;;14.90;;
9409;SDS011;4744;52.576;13.568;2024-03-08T05:39:06;35.50;;;15.68;;
9409;SDS011;4744;52.576;13.568;2024-03-08T05:41:33;40.03;;;15.40;;
9409;SDS011;4744;52.576;13.568;2024-03-08T05:44:00;32.55;;;14.13;;
9409;SDS011;4744;52.576;13.568;2024-03-08T05:46:27;38.53;;;15.32;;
9409;SDS011;4744;52.576;13.568;2024-03-08T05:48:56;30.70;;;13.68;;
9409;SDS011;4744;52.576;13.568;2024-03-08T05:51:24;34.88;;;15.07;;
9409;SDS011;4744;52.576;13.568;2024-03-08T05:53:52;32.40;;;14.57;;
9409;SDS011;4744;52.576;13.568;2024-03-08T05:56:22;38.08;;;15.73;;
9409;SDS011;4744;52.576;13.568;2024-03-08T05:58:49;38.80;;;15.23;;
9409;SDS011;4744;52.576;13.568;2024-03-08T06:01:16;25.25;;;13.55;;
9409;SDS011;4744;52.576;13.568;2024-03-08T06:03:43;36.50;;;15.52;;
9409;SDS011;4744;52.576;13.568;2024-03-08T06:06:12;34.83;;;17.15;;
9409;SDS011;4744;52.576;13.568;2024-03-08T06:08:39;34.75;;;14.88;;
9409;SDS011;4744;52.576;13.568;2024-03-08T06:11:08;39.30;;;17.15;;
9409;SDS011;4744;52.576;13.568;2024-03-08T06:13:35;33.15;;;14.85;;
9409;SDS011;4744;52.576;13.568;2024-03-08T06:16:02;34.15;;;15.82;;
9409;SDS011;4744;52.576;13.568;2024-03-08T06:18:29;37.72;;;14.73;;
9409;SDS011;4744;52.576;13.568;2024-03-08T06:20:56;39.28;;;16.02;;
9409;SDS011;4744;52.576;13.568;2024-03-08T06:23:24;36.97;;;16.45;;
9409;SDS011;4744;52.576;13.568;2024-03-08T06:25:52;38.92;;;16.00;;
9409;SDS011;4744;52.576;13.568;2024-03-08T06:28:19;36.45;;;15.68;;
9409;SDS011;4744;52.576;13.568;2024-03-08T06:30:47;34.88;;;15.27;;
9409;SDS011;4744;52.576;13.568;2024-03-08T06:33:16;38.00;;;15.38;;
9409;SDS011;4744;52.576;13.568;2024-03-08T06:35:42;31.85;;;14.15;;
9409;SDS011;4744;52.576;13.568;2024-03-08T06:38:10;42.33;;;15.95;;
9409;SDS011;4744;52.576;13.568;2024-03-08T06:40:39;39.78;;;17.23;;
9409;SDS011;4744;52.576;13.568;2024-03-08T06:43:06;38.42;;;16.52;;
9409;SDS011;4744;52.576;13.568;2024-03-08T06:45:33;33.45;;;14.77;;
9409;SDS011;4744;52.576;13.568;2024-03-08T06:48:02;43.75;;;16.55;;
9409;SDS011;4744;52.576;13.568;2024-03-08T06:50:34;35.70;;;15.55;;
9409;SDS011;4744;52.576;13.568;2024-03-08T06:53:02;35.08;;;15.07;;
9409;SDS011;4744;52.576;13.568;2024-03-08T06:55:29;41.45;;;16.10;;
9409;SDS011;4744;52.576;13.568;2024-03-08T06:57:57;39.53;;;16.08;;
9409;SDS011;4744;52.576;13.568;2024-03-08T07:00:24;40.45;;;16.88;;
9409;SDS011;4744;52.576;13.568;2024-03-08T07:02:53;40.08;;;17.02;;
9409;SDS011;4744;52.576;13.568;2024-03-08T07:05:20;32.45;;;16.60;;
9409;SDS011;4744;52.576;13.568;2024-03-08T07:07:48;43.03;;;16.70;;
9409;SDS011;4744;52.576;13.568;2024-03-08T07:10:16;34.65;;;15.20;;
9409;SDS011;4744;52.576;13.568;2024-03-08T07:12:44;40.63;;;17.00;;
9409;SDS011;4744;52.576;13.568;2024-03-08T07:15:13;34.67;;;16.30;;
9409;SDS011;4744;52.576;13.568;2024-03-08T07:17:40;38.25;;;16.80;;
9409;SDS011;4744;52.576;13.568;2024-03-08T07:20:09;36.92;;;15.20;;
9409;SDS011;4744;52.576;13.568;2024-03-08T07:22:37;34.80;;;16.52;;
9409;SDS011;4744;52.576;13.568;2024-03-08T07:25:05;35.55;;;15.77;;
9409;SDS011;4744;52.576;13.568;2024-03-08T07:27:45;35.78;;;16.50;;
9409;SDS011;4744;52.576;13.568;2024-03-08T07:30:14;36.47;;;16.30;;
9409;SDS011;4744;52.576;13.568;2024-03-08T07:33:02;38.47;;;16.20;;
9409;SDS011;4744;52.576;13.568;2024-03-08T07:35:29;35.03;;;15.95;;
9409;SDS011;4744;52.576;13.568;2024-03-08T07:37:57;33.78;;;15.30;;
9409;SDS011;4744;52.576;13.568;2024-03-08T07:40:25;33.13;;;14.77;;
9409;SDS011;4744;52.576;13.568;2024-03-08T07:42:52;36.42;;;15.77;;
9409;SDS011;4744;52.576;13.568;2024-03-08T07:45:20;35.10;;;15.93;;
9409;SDS011;4744;52.576;13.568;2024-03-08T07:47:48;34.22;;;16.15;;
9409;SDS011;4744;52.576;13.568;2024-03-08T07:50:15;35.22;;;15.95;;
9409;SDS011;4744;52.576;13.568;2024-03-08T07:52:44;35.28;;;15.65;;
9409;SDS011;4744;52.576;13.568;2024-03-08T07:55:11;32.85;;;14.65;;
9409;SDS011;4744;52.576;13.568;2024-03-08T07:57:38;36.88;;;15.43;;
9409;SDS011;4744;52.576;13.568;2024-03-08T08:00:05;33.80;;;16.48;;
9409;SDS011;4744;52.576;13.568;2024-03-08T08:02:35;32.92;;;14.32;;
9409;SDS011;4744;52.576;13.568;2024-03-08T08:05:04;34.60;;;14.70;;
9409;SDS011;4744;52.576;13.568;2024-03-08T08:07:32;32.45;;;15.55;;
9409;SDS011;4744;52.576;13.568;2024-03-08T08:09:59;35.47;;;14.80;;
9409;SDS011;4744;52.576;13.568;2024-03-08T08:12:26;29.70;;;14.48;;
9409;SDS011;4744;52.576;13.568;2024-03-08T08:14:54;37.40;;;16.45;;
9409;SDS011;4744;52.576;13.568;2024-03-08T08:17:21;34.90;;;15.07;;
9409;SDS011;4744;52.576;13.568;2024-03-08T08:19:50;29.02;;;14.05;;
9409;SDS011;4744;52.576;13.568;2024-03-08T08:22:17;30.70;;;15.60;;
9409;SDS011;4744;52.576;13.568;2024-03-08T08:24:44;30.10;;;13.38;;
9409;SDS011;4744;52.576;13.568;2024-03-08T08:27:11;34.50;;;15.05;;
9409;SDS011;4744;52.576;13.568;2024-03-08T08:29:39;28.15;;;13.10;;
9409;SDS011;4744;52.576;13.568;2024-03-08T08:32:06;29.00;;;13.77;;
9409;SDS011;4744;52.576;13.568;2024-03-08T08:34:33;31.88;;;14.70;;
9409;SDS011;4744;52.576;13.568;2024-03-08T08:37:01;30.40;;;14.02;;
9409;SDS011;4744;52.576;13.568;2024-03-08T08:39:28;27.60;;;12.95;;
9409;SDS011;4744;52.576;13.568;2024-03-08T08:41:55;33.75;;;14.57;;
9409;SDS011;4744;52.576;13.568;2024-03-08T08:44:22;30.40;;;15.20;;
9409;SDS011;4744;52.576;13.568;2024-03-08T08:46:50;29.20;;;13.23;;
9409;SDS011;4744;52.576;13.568;2024-03-08T08:49:17;30.83;;;13.55;;
9409;SDS011;4744;52.576;13.568;2024-03-08T08:51:48;27.77;;;14.15;;
9409;SDS011;4744;52.576;13.568;2024-03-08T08:54:17;29.38;;;14.00;;
9409;SDS011;4744;52.576;13.568;2024-03-08T08:56:45;31.05;;;13.82;;
9409;SDS011;4744;52.576;13.568;2024-03-08T08:59:12;29.60;;;13.23;;
9409;SDS011;4744;52.576;13.568;2024-03-08T09:01:41;30.20;;;14.00;;
9409;SDS011;4744;52.576;13.568;2024-03-08T09:04:08;27.63;;;12.45;;
9409;SDS011;4744;52.576;13.568;2024-03-08T09:09:06;24.77;;;12.05;;
9409;SDS011;4744;52.576;13.568;2024-03-08T09:11:37;26.17;;;13.10;;
9409;SDS011;4744;52.576;13.568;2024-03-08T09:14:06;27.92;;;13.95;;
9409;SDS011;4744;52.576;13.568;2024-03-08T09:16:33;27.73;;;12.38;;
9409;SDS011;4744;52.576;13.568;2024-03-08T09:19:02;26.30;;;11.52;;
9409;SDS011;4744;52.576;13.568;2024-03-08T09:21:28;22.60;;;11.93;;
9409;SDS011;4744;52.576;13.568;2024-03-08T09:23:56;28.17;;;13.60;;
9409;SDS011;4744;52.576;13.568;2024-03-08T09:26:24;26.25;;;12.45;;
9409;SDS011;4744;52.576;13.568;2024-03-08T09:28:53;25.65;;;12.40;;
9409;SDS011;4744;52.576;13.568;2024-03-08T09:31:20;28.50;;;11.88;;
9409;SDS011;4744;52.576;13.568;2024-03-08T09:33:47;26.80;;;12.75;;
9409;SDS011;4744;52.576;13.568;2024-03-08T09:36:15;26.13;;;14.23;;
9409;SDS011;4744;52.576;13.568;2024-03-08T09:38:42;26.17;;;12.95;;
9409;SDS011;4744;52.576;13.568;2024-03-08T09:41:10;22.33;;;12.20;;
9409;SDS011;4744;52.576;13.568;2024-03-08T09:43:37;23.23;;;12.80;;
9409;SDS011;4744;52.576;13.568;2024-03-08T09:46:06;24.60;;;12.18;;
9409;SDS011;4744;52.576;13.568;2024-03-08T09:48:35;23.88;;;12.23;;
9409;SDS011;4744;52.576;13.568;2024-03-08T09:51:03;23.75;;;12.57;;
9409;SDS011;4744;52.576;13.568;2024-03-08T09:53:32;23.23;;;9.95;;
9409;SDS011;4744;52.576;13.568;2024-03-08T09:55:59;22.73;;;11.55;;
9409;SDS011;4744;52.576;13.568;2024-03-08T09:58:28;26.02;;;11.23;;
9409;SDS011;4744;52.576;13.568;2024-03-08T10:01:13;24.90;;;11.30;;
9409;SDS011;4744;52.576;13.568;2024-03-08T10:03:40;25.27;;;12.57;;
9409;SDS011;4744;52.576;13.568;2024-03-08T10:06:07;22.10;;;10.43;;
9409;SDS011;4744;52.576;13.568;2024-03-08T10:08:35;23.88;;;12.05;;
9409;SDS011;4744;52.576;13.568;2024-03-08T10:11:02;22.63;;;12.05;;
9409;SDS011;4744;52.576;13.568;2024-03-08T10:13:29;22.35;;;11.48;;
9409;SDS011;4744;52.576;13.568;2024-03-08T10:15:56;20.25;;;10.63;;
9409;SDS011;4744;52.576;13.568;2024-03-08T10:18:25;24.70;;;10.57;;
9409;SDS011;4744;52.576;13.568;2024-03-08T10:21:02;28.60;;;12.95;;
9409;SDS011;4744;52.576;13.568;2024-03-08T10:23:30;22.40;;;10.98;;
9409;SDS011;4744;52.576;13.568;2024-03-08T10:26:01;26.15;;;12.88;;
9409;SDS011;4744;52.576;13.568;2024-03-08T10:28:36;24.08;;;10.80;;
9409;SDS011;4744;52.576;13.568;2024-03-08T10:31:03;21.73;;;11.32;;
9409;SDS011;4744;52.576;13.568;2024-03-08T10:33:32;23.67;;;11.13;;
9409;SDS011;4744;52.576;13.568;2024-03-08T10:35:59;23.38;;;10.57;;
9409;SDS011;4744;52.576;13.568;2024-03-08T10:40:57;21.05;;;10.27;;
9409;SDS011;4744;52.576;13.568;2024-03-08T10:43:26;19.70;;;10.40;;
9409;SDS011;4744;52.576;13.568;2024-03-08T10:46:05;23.27;;;10.45;;
9409;SDS011;4744;52.576;13.568;2024-03-08T10:48:44;20.65;;;11.07;;
9409;SDS011;4744;52.576;13.568;2024-03-08T10:51:13;19.88;;;9.88;;
9409;SDS011;4744;52.576;13.568;2024-03-08T10:53:41;17.48;;;10.13;;
9409;SDS011;4744;52.576;13.568;2024-03-08T10:56:10;19.30;;;10.70;;
9409;SDS011;4744;52.576;13.568;2024-03-08T10:58:39;20.67;;;9.65;;
9409;SDS011;4744;52.576;13.568;2024-03-08T11:01:09;21.40;;;10.48;;
9409;SDS011;4744;52.576;13.568;2024-03-08T11:03:50;17.20;;;9.55;;
9409;SDS011;4744;52.576;13.568;2024-03-08T11:06:18;19.40;;;9.38;;
9409;SDS011;4744;52.576;13.568;2024-03-08T11:08:49;21.90;;;11.05;;
9409;SDS011;4744;52.576;13.568;2024-03-08T11:11:28;20.58;;;11.73;;
9409;SDS011;4744;52.576;13.568;2024-03-08T11:13:56;20.80;;;11.57;;
9409;SDS011;4744;52.576;13.568;2024-03-08T11:16:37;20.65;;;10.15;;
9409;SDS011;4744;52.576;13.568;2024-03-08T11:19:23;22.25;;;10.90;;
9409;SDS011;4744;52.576;13.568;2024-03-08T11:21:59;22.85;;;9.82;;
9409;SDS011;4744;52.576;13.568;2024-03-08T11:24:27;24.60;;;11.05;;
9409;SDS011;4744;52.576;13.568;2024-03-08T11:27:03;19.98;;;11.13;;
9409;SDS011;4744;52.576;13.568;2024-03-08T11:29:38;19.42;;;10.63;;
9409;SDS011;4744;52.576;13.568;2024-03-08T11:32:09;20.58;;;10.05;;
9409;SDS011;4744;52.576;13.568;2024-03-08T11:34:39;20.90;;;9.80;;
9409;SDS011;4744;52.576;13.568;2024-03-08T11:37:12;23.08;;;10.20;;
9409;SDS011;4744;52.576;13.568;2024-03-08T11:39:40;17.60;;;10.15;;
9409;SDS011;4744;52.576;13.568;2024-03-08T11:42:12;16.48;;;9.73;;
9409;SDS011;4744;52.576;13.568;2024-03-08T11:44:39;19.92;;;9.80;;
9409;SDS011;4744;52.576;13.568;2024-03-08T11:47:09;20.70;;;10.35;;
9409;SDS011;4744;52.576;13.568;2024-03-08T11:49:37;26.58;;;12.38;;
9409;SDS011;4744;52.576;13.568;2024-03-08T11:52:10;19.88;;;10.35;;
9409;SDS011;4744;52.576;13.568;2024-03-08T11:54:38;25.08;;;10.93;;
9409;SDS011;4744;52.576;13.568;2024-03-08T11:57:05;22.10;;;10.63;;
9409;SDS011;4744;52.576;13.568;2024-03-08T11:59:34;20.20;;;11.52;;
9409;SDS011;4744;52.576;13.568;2024-03-08T12:02:02;20.70;;;10.90;;
9409;SDS011;4744;52.576;13.568;2024-03-08T12:04:30;21.95;;;9.82;;
9409;SDS011;4744;52.576;13.568;2024-03-08T12:07:00;21.40;;;13.18;;
9409;SDS011;4744;52.576;13.568;2024-03-08T12:09:33;21.52;;;11.15;;
9409;SDS011;4744;52.576;13.568;2024-03-08T12:12:01;25.20;;;13.95;;
9409;SDS011;4744;52.576;13.568;2024-03-08T12:14:29;18.15;;;10.13;;
9409;SDS011;4744;52.576;13.568;2024-03-08T12:16:57;22.05;;;13.07;;
9409;SDS011;4744;52.576;13.568;2024-03-08T12:19:26;22.35;;;12.23;;
9409;SDS011;4744;52.576;13.568;2024-03-08T12:21:53;17.08;;;9.73;;
9409;SDS011;4744;52.576;13.568;2024-03-08T12:24:22;18.17;;;10.45;;
9409;SDS011;4744;52.576;13.568;2024-03-08T12:26:49;21.75;;;10.60;;
9409;SDS011;4744;52.576;13.568;2024-03-08T12:29:17;19.85;;;10.13;;
9409;SDS011;4744;52.576;13.568;2024-03-08T12:31:47;18.33;;;9.98;;
9409;SDS011;4744;52.576;13.568;2024-03-08T12:34:16;17.13;;;10.18;;
9409;SDS011;4744;52.576;13.568;2024-03-08T12:36:47;22.02;;;10.88;;
9409;SDS011;4744;52.576;13.568;2024-03-08T12:39:15;20.25;;;10.20;;
9409;SDS011;4744;52.576;13.568;2024-03-08T12:41:48;24.13;;;12.27;;
9409;SDS011;4744;52.576;13.568;2024-03-08T12:44:16;21.27;;;11.60;;
9409;SDS011;4744;52.576;13.568;2024-03-08T12:46:44;20.65;;;11.00;;
9409;SDS011;4744;52.576;13.568;2024-03-08T12:49:11;18.05;;;10.15;;
9409;SDS011;4744;52.576;13.568;2024-03-08T12:51:38;23.95;;;11.68;;
9409;SDS011;4744;52.576;13.568;2024-03-08T12:54:06;21.73;;;10.75;;
9409;SDS011;4744;52.576;13.568;2024-03-08T12:56:34;23.42;;;13.35;;
9409;SDS011;4744;52.576;13.568;2024-03-08T12:59:04;21.15;;;10.70;;
9409;SDS011;4744;52.576;13.568;2024-03-08T13:01:32;21.70;;;11.00;;
9409;SDS011;4744;52.576;13.568;2024-03-08T13:03:59;23.25;;;11.73;;
9409;SDS011;4744;52.576;13.568;2024-03-08T13:06:26;19.45;;;10.68;;
9409;SDS011;4744;52.576;13.568;2024-03-08T13:08:53;19.02;;;10.30;;
9409;SDS011;4744;52.576;13.568;2024-03-08T13:11:21;20.70;;;10.80;;
9409;SDS011;4744;52.576;13.568;2024-03-08T13:13:48;19.38;;;11.95;;
9409;SDS011;4744;52.576;13.568;2024-03-08T13:16:16;17.35;;;10.43;;
9409;SDS011;4744;52.576;13.568;2024-03-08T13:18:44;19.55;;;10.45;;
9409;SDS011;4744;52.576;13.568;2024-03-08T13:21:13;18.27;;;10.85;;
9409;SDS011;4744;52.576;13.568;2024-03-08T13:23:44;19.98;;;10.40;;
9409;SDS011;4744;52.576;13.568;2024-03-08T13:26:14;22.45;;;11.10;;
9409;SDS011;4744;52.576;13.568;2024-03-08T13:28:42;20.25;;;10.60;;
9409;SDS011;4744;52.576;13.568;2024-03-08T13:31:10;21.40;;;10.88;;
9409;SDS011;4744;52.576;13.568;2024-03-08T13:33:38;23.02;;;11.40;;
9409;SDS011;4744;52.576;13.568;2024-03-08T13:36:07;21.90;;;11.07;;
9409;SDS011;4744;52.576;13.568;2024-03-08T13:38:40;23.30;;;12.07;;
9409;SDS011;4744;52.576;13.568;2024-03-08T13:43:36;19.33;;;10.27;;
9409;SDS011;4744;52.576;13.568;2024-03-08T13:46:03;23.33;;;12.00;;
9409;SDS011;4744;52.576;13.568;2024-03-08T13:51:00;19.20;;;10.25;;
9409;SDS011;4744;52.576;13.568;2024-03-08T13:53:27;20.15;;;9.88;;
9409;SDS011;4744;52.576;13.568;2024-03-08T13:55:54;16.35;;;10.38;;
9409;SDS011;4744;52.576;13.568;2024-03-08T13:58:21;22.52;;;10.30;;
9409;SDS011;4744;52.576;13.568;2024-03-08T14:00:49;21.08;;;10.80;;
9409;SDS011;4744;52.576;13.568;2024-03-08T14:03:16;20.55;;;10.98;;
9409;SDS011;4744;52.576;13.568;2024-03-08T14:05:43;18.80;;;10.32;;
9409;SDS011;4744;52.576;13.568;2024-03-08T14:08:13;19.38;;;10.00;;
9409;SDS011;4744;52.576;13.568;2024-03-08T14:10:41;20.00;;;10.65;;
9409;SDS011;4744;52.576;13.568;2024-03-08T14:13:08;21.00;;;10.23;;
9409;SDS011;4744;52.576;13.568;2024-03-08T14:15:36;18.55;;;9.52;;
9409;SDS011;4744;52.576;13.568;2024-03-08T14:18:07;19.08;;;10.55;;
9409;SDS011;4744;52.576;13.568;2024-03-08T14:20:34;19.85;;;10.27;;
9409;SDS011;4744;52.576;13.568;2024-03-08T14:23:01;22.80;;;9.40;;
9409;SDS011;4744;52.576;13.568;2024-03-08T14:25:29;21.23;;;10.80;;
9409;SDS011;4744;52.576;13.568;2024-03-08T14:27:56;16.45;;;9.13;;
9409;SDS011;4744;52.576;13.568;2024-03-08T14:30:27;18.10;;;9.73;;
9409;SDS011;4744;52.576;13.568;2024-03-08T14:33:02;17.02;;;9.55;;
9409;SDS011;4744;52.576;13.568;2024-03-08T14:35:34;23.08;;;8.63;;
9409;SDS011;4744;52.576;13.568;2024-03-08T14:38:01;19.30;;;8.70;;
9409;SDS011;4744;52.576;13.568;2024-03-08T14:40:29;17.92;;;9.18;;
9409;SDS011;4744;52.576;13.568;2024-03-08T14:42:57;18.98;;;8.75;;
9409;SDS011;4744;52.576;13.568;2024-03-08T14:45:24;19.40;;;9.32;;
9409;SDS011;4744;52.576;13.568;2024-03-08T14:47:51;17.50;;;9.73;;
9409;SDS011;4744;52.576;13.568;2024-03-08T14:50:20;17.40;;;9.25;;
9409;SDS011;4744;52.576;13.568;2024-03-08T14:52:48;17.67;;;10.05;;